createdAt,value
2019-04-25T00:02:15.785Z,10.00
2019-04-25T00:04:45.533Z,10.00
2019-04-25T00:07:15.299Z,10.00
2019-04-25T00:09:51.725Z,10.10
2019-04-25T00:12:22.306Z,10.10
2019-04-25T00:14:53.662Z,10.10
2019-04-25T00:17:24.176Z,10.10
2019-04-25T00:19:54.224Z,10.10
2019-04-25T00:22:25.696Z,10.10
2019-04-25T00:25:12.891Z,10.10
2019-04-25T00:27:32.865Z,10.20
2019-04-25T00:30:02.607Z,10.20
2019-04-25T00:32:33.597Z,10.20
2019-04-25T00:35:03.379Z,10.20
2019-04-25T00:37:33.056Z,10.20
2019-04-25T00:40:02.847Z,10.10
2019-04-25T00:42:32.741Z,10.10
2019-04-25T00:45:02.525Z,10.10
2019-04-25T00:47:32.309Z,10.10
2019-04-25T00:50:02.423Z,10.10
2019-04-25T00:52:35.156Z,10.00
2019-04-25T00:55:05.943Z,10.10
2019-04-25T00:57:39.035Z,10.10
2019-04-25T01:00:22.207Z,10.10
2019-04-25T01:02:54.577Z,10.10
2019-04-25T01:05:24.340Z,10.20
2019-04-25T01:07:54.418Z,10.20
2019-04-25T01:10:24.296Z,10.20
2019-04-25T01:12:54.516Z,10.20
2019-04-25T01:15:24.732Z,10.20
2019-04-25T01:17:55.133Z,10.20
2019-04-25T01:20:26.112Z,10.20
2019-04-25T01:22:57.554Z,10.20
2019-04-25T01:25:38.575Z,10.30
2019-04-25T01:27:59.695Z,10.30
2019-04-25T01:30:29.542Z,10.30
2019-04-25T01:32:59.319Z,10.30
2019-04-25T01:35:33.519Z,10.30
2019-04-25T01:38:07.927Z,10.30
2019-04-25T01:40:49.396Z,10.30
2019-04-25T01:43:20.840Z,10.30
2019-04-25T01:45:51.719Z,10.30
2019-04-25T01:48:23.370Z,10.30
2019-04-25T01:50:54.551Z,10.30
2019-04-25T01:53:24.646Z,10.30
2019-04-25T01:56:01.613Z,10.30
2019-04-25T01:58:25.767Z,10.30
2019-04-25T02:00:56.384Z,10.30
2019-04-25T02:03:27.366Z,10.30
2019-04-25T02:05:57.402Z,10.30
2019-04-25T02:08:27.165Z,10.30
2019-04-25T02:10:58.974Z,10.40
2019-04-25T02:13:28.759Z,10.40
2019-04-25T02:15:59.198Z,10.40
2019-04-25T02:18:28.998Z,10.40
2019-04-25T02:21:00.289Z,10.40
2019-04-25T02:23:30.197Z,10.40
2019-04-25T02:26:12.656Z,10.50
2019-04-25T02:28:31.660Z,10.50
2019-04-25T02:31:03.800Z,10.50
2019-04-25T02:33:34.106Z,10.50
2019-04-25T02:36:08.622Z,10.50
2019-04-25T02:38:35.599Z,10.50
2019-04-25T02:41:08.929Z,10.50
2019-04-25T02:43:37.865Z,10.50
2019-04-25T02:46:11.964Z,10.50
2019-04-25T02:49:02.393Z,10.40
2019-04-25T02:51:34.803Z,10.40
2019-04-25T02:54:07.569Z,10.40
2019-04-25T02:56:38.669Z,10.40
2019-04-25T02:59:08.861Z,10.40
2019-04-25T03:01:38.480Z,10.40
2019-04-25T03:04:11.126Z,10.30
2019-04-25T03:06:39.612Z,10.30
2019-04-25T03:09:11.555Z,10.30
2019-04-25T03:11:41.328Z,10.30
2019-04-25T03:14:11.007Z,10.30
2019-04-25T03:17:00.414Z,10.30
2019-04-25T03:19:41.179Z,10.30
2019-04-25T03:22:18.330Z,10.20
2019-04-25T03:24:48.111Z,10.20
2019-04-25T03:27:19.622Z,10.10
2019-04-25T03:29:49.329Z,10.10
2019-04-25T03:32:20.152Z,10.00
2019-04-25T03:34:50.175Z,10.00
2019-04-25T03:37:19.966Z,10.00
2019-04-25T03:40:04.482Z,10.00
2019-04-25T03:42:33.911Z,10.00
2019-04-25T03:45:05.852Z,9.90
2019-04-25T03:47:35.162Z,10.00
2019-04-25T03:50:07.968Z,10.00
2019-04-25T03:52:37.862Z,10.00
2019-04-25T03:55:08.601Z,10.00
2019-04-25T03:57:38.472Z,10.00
2019-04-25T04:00:08.744Z,10.00
2019-04-25T04:02:38.529Z,10.00
2019-04-25T04:05:08.648Z,10.00
2019-04-25T04:07:39.363Z,10.00
2019-04-25T04:10:09.950Z,10.00
2019-04-25T04:12:39.751Z,10.00
2019-04-25T04:15:10.415Z,10.00
2019-04-25T04:17:43.700Z,10.00
2019-04-25T04:20:15.919Z,10.00
2019-04-25T04:22:53.547Z,10.00
2019-04-25T04:25:23.647Z,10.00
2019-04-25T04:27:53.820Z,10.00
2019-04-25T04:30:24.169Z,10.00
2019-04-25T04:32:53.990Z,10.00
2019-04-25T04:35:23.791Z,10.00
2019-04-25T04:37:54.213Z,10.00
2019-04-25T04:40:24.369Z,10.00
2019-04-25T04:42:54.291Z,10.00
2019-04-25T04:45:24.075Z,10.00
2019-04-25T04:47:53.805Z,10.00
2019-04-25T04:50:25.231Z,10.00
2019-04-25T04:52:54.867Z,10.00
2019-04-25T04:55:24.548Z,10.00
2019-04-25T04:57:54.344Z,10.00
2019-04-25T05:00:25.871Z,10.00
2019-04-25T05:03:00.201Z,9.90
2019-04-25T05:05:34.811Z,9.90
2019-04-25T05:08:08.759Z,9.90
2019-04-25T05:10:38.510Z,9.90
2019-04-25T05:13:08.343Z,9.90
2019-04-25T05:15:38.126Z,9.80
2019-04-25T05:18:07.865Z,9.80
2019-04-25T05:20:37.668Z,9.90
2019-04-25T05:23:08.918Z,9.90
2019-04-25T05:25:38.798Z,9.90
2019-04-25T05:28:08.542Z,9.90
2019-04-25T05:30:45.972Z,9.90
2019-04-25T05:33:18.637Z,9.90
2019-04-25T05:35:46.946Z,9.90
2019-04-25T05:38:17.617Z,9.90
2019-04-25T05:40:53.811Z,9.90
2019-04-25T05:43:26.530Z,9.90
2019-04-25T05:45:57.302Z,9.90
2019-04-25T05:48:27.159Z,9.80
2019-04-25T05:50:56.826Z,9.90
2019-04-25T05:53:28.399Z,9.80
2019-04-25T05:56:18.072Z,9.80
2019-04-25T05:58:47.968Z,9.90
2019-04-25T06:01:18.841Z,9.90
2019-04-25T06:03:48.600Z,9.90
2019-04-25T06:06:19.190Z,9.90
2019-04-25T06:09:06.961Z,9.90
2019-04-25T06:11:53.447Z,10.00
2019-04-25T06:14:24.023Z,10.00
2019-04-25T06:16:56.480Z,10.00
2019-04-25T06:19:40.187Z,10.00
2019-04-25T06:22:15.149Z,10.00
2019-04-25T06:24:52.156Z,10.00
2019-04-25T06:27:24.334Z,10.00
2019-04-25T06:29:59.052Z,10.10
2019-04-25T06:32:30.429Z,10.10
2019-04-25T06:35:00.044Z,10.10
2019-04-25T06:37:43.743Z,10.20
2019-04-25T06:40:14.380Z,10.20
2019-04-25T06:42:46.593Z,10.20
2019-04-25T06:45:25.294Z,10.20
2019-04-25T06:48:04.088Z,10.20
2019-04-25T06:50:35.297Z,10.20
2019-04-25T06:53:05.292Z,10.20
2019-04-25T06:55:35.118Z,10.20
2019-04-25T06:58:12.022Z,10.20
2019-04-25T07:00:41.250Z,10.30
2019-04-25T07:03:07.571Z,10.30
2019-04-25T07:05:40.527Z,10.30
2019-04-25T07:08:08.802Z,10.30
2019-04-25T07:10:38.587Z,10.40
2019-04-25T07:13:08.392Z,10.40
2019-04-25T07:15:40.077Z,10.50
2019-04-25T07:18:09.842Z,10.50
2019-04-25T07:20:40.767Z,10.50
2019-04-25T07:23:10.564Z,10.50
2019-04-25T07:25:41.890Z,10.50
2019-04-25T07:31:25.072Z,10.60
2019-04-25T07:33:59.123Z,10.70
2019-04-25T07:36:28.871Z,10.80
2019-04-25T07:39:09.751Z,10.80
2019-04-25T07:41:34.478Z,10.90
2019-04-25T07:44:04.300Z,10.80
2019-04-25T07:46:38.206Z,10.80
2019-04-25T07:49:05.756Z,10.80
2019-04-25T07:51:36.683Z,10.80
2019-04-25T07:54:07.250Z,10.80
2019-04-25T07:56:37.969Z,10.80
2019-04-25T07:59:08.050Z,10.90
2019-04-25T08:01:39.114Z,10.90
2019-04-25T08:04:09.064Z,10.90
2019-04-25T08:06:38.951Z,10.90
2019-04-25T08:09:10.856Z,10.90
2019-04-25T08:11:41.019Z,10.90
2019-04-25T08:14:15.535Z,11.00
2019-04-25T08:16:47.063Z,11.00
2019-04-25T08:19:16.836Z,11.00
2019-04-25T08:21:46.682Z,11.10
2019-04-25T08:24:17.457Z,11.10
2019-04-25T08:26:47.199Z,11.20
2019-04-25T08:29:16.915Z,11.30
2019-04-25T08:31:46.585Z,11.40
2019-04-25T08:34:16.346Z,11.50
2019-04-25T08:36:46.110Z,11.60
2019-04-25T08:39:16.430Z,11.70
2019-04-25T08:41:46.213Z,11.80
2019-04-25T08:44:15.981Z,11.90
2019-04-25T08:46:48.576Z,12.00
2019-04-25T08:49:18.741Z,12.10
2019-04-25T08:51:50.094Z,12.20
2019-04-25T08:54:42.177Z,12.20
2019-04-25T08:57:15.245Z,12.20
2019-04-25T08:59:52.352Z,12.20
2019-04-25T09:02:19.835Z,12.20
2019-04-25T09:05:07.470Z,12.20
2019-04-25T09:07:38.204Z,12.20
2019-04-25T09:10:08.896Z,12.20
2019-04-25T09:12:39.513Z,12.20
2019-04-25T09:15:09.724Z,12.20
2019-04-25T09:17:39.502Z,12.30
2019-04-25T09:20:09.681Z,12.40
2019-04-25T09:22:39.949Z,12.40
2019-04-25T09:25:10.354Z,12.40
2019-04-25T09:27:41.691Z,12.40
2019-04-25T09:30:14.214Z,12.50
2019-04-25T09:32:44.623Z,12.50
2019-04-25T09:35:14.583Z,12.60
2019-04-25T09:37:45.348Z,12.70
2019-04-25T09:40:17.059Z,12.70
2019-04-25T09:42:47.132Z,12.70
2019-04-25T09:45:31.303Z,12.80
2019-04-25T09:48:15.259Z,12.90
2019-04-25T09:50:46.616Z,13.00
2019-04-25T09:53:23.556Z,13.00
2019-04-25T09:56:10.474Z,13.10
2019-04-25T09:58:56.760Z,13.10
2019-04-25T10:01:27.633Z,13.20
2019-04-25T10:03:57.425Z,13.20
2019-04-25T10:06:27.210Z,13.20
2019-04-25T10:08:56.992Z,13.20
2019-04-25T10:11:26.922Z,13.30
2019-04-25T10:14:09.644Z,13.30
2019-04-25T10:16:40.219Z,13.40
2019-04-25T10:19:10.048Z,13.50
2019-04-25T10:21:39.803Z,13.50
2019-04-25T10:24:09.580Z,13.60
2019-04-25T10:26:39.838Z,13.60
2019-04-25T10:29:09.733Z,13.60
2019-04-25T10:31:39.864Z,13.60
2019-04-25T10:34:14.068Z,13.60
2019-04-25T10:36:46.826Z,13.70
2019-04-25T10:39:16.363Z,13.70
2019-04-25T10:41:46.828Z,13.60
2019-04-25T10:44:17.609Z,13.60
2019-04-25T10:46:48.508Z,13.60
2019-04-25T10:49:18.226Z,13.60
2019-04-25T10:51:48.064Z,13.60
2019-04-25T10:54:17.815Z,13.60
2019-04-25T10:56:48.373Z,13.60
2019-04-25T10:59:18.212Z,13.60
2019-04-25T11:01:48.907Z,13.60
2019-04-25T11:04:20.634Z,13.50
2019-04-25T11:06:50.411Z,13.50
2019-04-25T11:09:25.195Z,13.40
2019-04-25T11:11:55.704Z,13.40
2019-04-25T11:14:27.652Z,13.40
2019-04-25T11:16:57.618Z,13.30
2019-04-25T11:19:27.593Z,13.20
2019-04-25T11:21:57.391Z,13.20
2019-04-25T11:24:27.197Z,13.30
2019-04-25T11:26:57.151Z,13.30
2019-04-25T11:29:27.014Z,13.20
2019-04-25T11:31:56.849Z,13.20
2019-04-25T11:34:27.618Z,13.20
2019-04-25T11:36:57.844Z,13.20
2019-04-25T11:39:38.201Z,13.30
2019-04-25T11:42:27.437Z,13.30
2019-04-25T11:44:57.214Z,13.40
2019-04-25T11:47:27.325Z,13.50
2019-04-25T11:49:57.071Z,13.50
2019-04-25T11:52:29.979Z,13.50
2019-04-25T11:54:58.246Z,13.60
2019-04-25T11:57:28.029Z,13.60
2019-04-25T11:59:57.733Z,13.50
2019-04-25T12:02:27.897Z,13.50
2019-04-25T12:04:57.613Z,13.60
2019-04-25T12:07:27.559Z,13.60
2019-04-25T12:09:57.276Z,13.70
2019-04-25T12:12:26.997Z,13.70
2019-04-25T12:14:56.773Z,13.80
2019-04-25T12:17:26.554Z,13.80
2019-04-25T12:19:56.275Z,13.90
2019-04-25T12:22:26.175Z,13.90
2019-04-25T12:24:55.927Z,13.90
2019-04-25T12:27:26.110Z,14.00
2019-04-25T12:29:55.844Z,13.90
2019-04-25T12:32:25.556Z,14.00
2019-04-25T12:34:56.110Z,14.00
2019-04-25T12:37:27.122Z,14.00
2019-04-25T12:39:56.883Z,14.00
2019-04-25T12:42:27.128Z,14.00
2019-04-25T12:45:01.211Z,14.00
2019-04-25T12:47:34.254Z,14.00
2019-04-25T12:50:05.385Z,14.10
2019-04-25T12:52:35.236Z,14.20
2019-04-25T12:55:06.672Z,14.30
2019-04-25T12:57:36.460Z,14.30
2019-04-25T13:00:07.041Z,14.30
2019-04-25T13:02:36.861Z,14.20
2019-04-25T13:05:07.634Z,14.20
2019-04-25T13:07:38.970Z,14.20
2019-04-25T13:10:09.302Z,14.30
2019-04-25T13:12:39.086Z,14.40
2019-04-25T13:15:09.830Z,14.40
2019-04-25T13:17:40.043Z,14.50
2019-04-25T13:20:09.988Z,14.60
2019-04-25T13:22:39.812Z,14.60
2019-04-25T13:25:11.063Z,14.70
2019-04-25T13:27:45.268Z,14.70
2019-04-25T13:30:16.887Z,14.70
2019-04-25T13:32:48.347Z,14.70
2019-04-25T13:35:19.684Z,14.70
2019-04-25T13:37:49.481Z,14.80
2019-04-25T13:40:19.247Z,14.80
2019-04-25T13:42:49.075Z,14.80
2019-04-25T13:45:18.870Z,14.80
2019-04-25T13:47:48.615Z,14.80
2019-04-25T13:50:18.500Z,14.80
2019-04-25T13:52:48.251Z,14.80
2019-04-25T13:55:18.022Z,14.80
2019-04-25T13:57:48.511Z,14.80
2019-04-25T14:00:20.148Z,14.80
2019-04-25T14:02:50.114Z,14.80
2019-04-25T14:05:21.138Z,14.80
2019-04-25T14:08:10.849Z,14.90
2019-04-25T14:10:40.612Z,15.00
2019-04-25T14:13:10.996Z,14.90
2019-04-25T14:15:43.126Z,14.90
2019-04-25T14:18:18.008Z,14.80
2019-04-25T14:20:49.511Z,14.80
2019-04-25T14:23:19.513Z,14.80
2019-04-25T14:25:49.292Z,14.80
2019-04-25T14:28:19.098Z,14.80
2019-04-25T14:30:48.900Z,14.90
2019-04-25T14:33:18.640Z,14.70
2019-04-25T14:35:48.437Z,14.50
2019-04-25T14:38:18.256Z,14.40
2019-04-25T14:40:49.108Z,14.30
2019-04-25T14:43:18.943Z,14.10
2019-04-25T14:45:48.761Z,14.00
2019-04-25T14:48:18.711Z,13.90
2019-04-25T14:50:48.460Z,13.80
2019-04-25T14:53:18.250Z,13.70
2019-04-25T14:55:52.472Z,13.60
2019-04-25T14:58:24.065Z,13.50
2019-04-25T15:00:53.919Z,13.30
2019-04-25T15:03:24.051Z,13.20
2019-04-25T15:05:53.904Z,13.10
2019-04-25T15:08:24.900Z,13.00
2019-04-25T15:10:55.944Z,12.90
2019-04-25T15:13:25.892Z,12.80
2019-04-25T15:15:55.618Z,12.70
2019-04-25T15:18:25.550Z,12.60
2019-04-25T15:20:55.267Z,12.50
2019-04-25T15:23:25.419Z,12.50
2019-04-25T15:25:55.335Z,12.40
2019-04-25T15:28:25.123Z,12.40
2019-04-25T15:30:55.008Z,12.40
2019-04-25T15:33:25.194Z,12.30
2019-04-25T15:35:59.640Z,12.30
2019-04-25T15:38:47.430Z,12.30
2019-04-25T15:41:20.097Z,12.40
2019-04-25T15:43:51.454Z,12.30
2019-04-25T15:46:26.091Z,12.30
2019-04-25T15:48:55.844Z,12.30
2019-04-25T15:51:25.609Z,12.20
2019-04-25T15:53:55.281Z,12.20
2019-04-25T15:56:25.192Z,12.20
2019-04-25T15:58:54.968Z,12.20
2019-04-25T16:01:26.398Z,12.10
2019-04-25T16:03:56.495Z,12.10
2019-04-25T16:06:27.778Z,12.00
2019-04-25T16:08:57.560Z,11.90
2019-04-25T16:11:28.027Z,11.80
2019-04-25T16:13:58.187Z,11.70
2019-04-25T16:16:28.292Z,11.70
2019-04-25T16:18:58.440Z,11.70
2019-04-25T16:21:29.047Z,11.60
2019-04-25T16:23:59.312Z,11.60
2019-04-25T16:26:29.557Z,11.70
2019-04-25T16:28:59.585Z,11.70
2019-04-25T16:31:29.545Z,11.70
2019-04-25T16:34:00.227Z,11.70
2019-04-25T16:36:30.771Z,11.70
2019-04-25T16:39:00.818Z,11.60
2019-04-25T16:41:32.152Z,11.60
2019-04-25T16:44:03.461Z,11.50
2019-04-25T16:46:34.202Z,11.50
2019-04-25T16:49:04.004Z,11.50
2019-04-25T16:51:33.740Z,11.50
2019-04-25T16:54:03.779Z,11.50
2019-04-25T16:56:33.474Z,11.50
2019-04-25T16:59:03.236Z,11.50
2019-04-25T17:01:33.765Z,11.50
2019-04-25T17:04:03.610Z,11.40
2019-04-25T17:06:33.882Z,11.40
2019-04-25T17:09:05.860Z,11.30
2019-04-25T17:11:37.151Z,11.30
2019-04-25T17:14:08.496Z,11.20
2019-04-25T17:16:40.858Z,11.10
2019-04-25T17:19:19.250Z,11.10
2019-04-25T17:21:49.086Z,11.00
2019-04-25T17:24:18.851Z,11.00
2019-04-25T17:26:48.673Z,11.00
2019-04-25T17:29:20.216Z,10.90
2019-04-25T17:31:54.286Z,10.90
2019-04-25T17:34:41.034Z,10.80
2019-04-25T17:37:12.676Z,10.80
2019-04-25T17:39:43.982Z,10.80
2019-04-25T17:42:13.751Z,10.80
2019-04-25T17:44:43.584Z,10.80
2019-04-25T17:47:13.355Z,10.80
2019-04-25T17:49:43.056Z,10.80
2019-04-25T17:52:12.794Z,10.80
2019-04-25T17:54:43.062Z,10.80
2019-04-25T17:57:13.095Z,10.70
2019-04-25T17:59:43.436Z,10.70
2019-04-25T18:02:13.551Z,10.70
2019-04-25T18:04:43.329Z,10.70
2019-04-25T18:07:13.193Z,10.70
2019-04-25T18:09:43.516Z,10.70
2019-04-25T18:12:13.350Z,10.60
2019-04-25T18:14:43.227Z,10.60
2019-04-25T18:17:12.984Z,10.60
2019-04-25T18:19:44.809Z,10.60
2019-04-25T18:22:21.971Z,10.50
2019-04-25T18:24:59.178Z,10.50
2019-04-25T18:27:37.578Z,10.50
2019-04-25T18:30:08.077Z,10.50
2019-04-25T18:32:39.398Z,10.50
2019-04-25T18:35:10.865Z,10.50
2019-04-25T18:41:01.075Z,10.50
2019-04-25T18:43:32.394Z,10.50
2019-04-25T18:46:06.171Z,10.50
2019-04-25T18:48:55.220Z,10.50
2019-04-25T18:51:24.944Z,10.50
2019-04-25T18:54:11.399Z,10.50
2019-04-25T18:56:43.234Z,10.50
2019-04-25T18:59:20.624Z,10.50
2019-04-25T19:01:52.062Z,10.50
2019-04-25T19:04:29.107Z,10.50
2019-04-25T19:06:58.891Z,10.50
2019-04-25T19:09:28.717Z,10.50
2019-04-25T19:11:58.519Z,10.50
2019-04-25T19:14:28.317Z,10.50
2019-04-25T19:16:58.098Z,10.50
2019-04-25T19:19:27.864Z,10.50
2019-04-25T19:21:57.676Z,10.50
2019-04-25T19:24:27.441Z,10.40
2019-04-25T19:26:57.526Z,10.40
2019-04-25T19:29:27.414Z,10.40
2019-04-25T19:31:58.348Z,10.50
2019-04-25T19:34:28.296Z,10.50
2019-04-25T19:36:58.147Z,10.50
2019-04-25T19:39:29.518Z,10.40
2019-04-25T19:42:10.002Z,10.40
2019-04-25T19:44:41.048Z,10.40
2019-04-25T19:47:10.953Z,10.40
2019-04-25T19:49:41.650Z,10.40
2019-04-25T19:52:11.573Z,10.30
2019-04-25T19:54:41.943Z,10.30
2019-04-25T19:57:12.312Z,10.30
2019-04-25T19:59:43.131Z,10.30
2019-04-25T20:02:14.826Z,10.30
2019-04-25T20:04:46.805Z,10.30
2019-04-25T20:07:23.982Z,10.30
2019-04-25T20:12:51.627Z,10.30
2019-04-25T20:15:20.071Z,10.30
2019-04-25T20:17:49.971Z,10.30
2019-04-25T20:20:19.806Z,10.30
2019-04-25T20:22:50.245Z,10.30
2019-04-25T20:25:20.161Z,10.30
2019-04-25T20:27:50.765Z,10.30
2019-04-25T20:30:23.310Z,10.30
2019-04-25T20:32:53.485Z,10.30
2019-04-25T20:35:23.360Z,10.30
2019-04-25T20:37:53.431Z,10.30
2019-04-25T20:40:23.523Z,10.30
2019-04-25T20:42:54.159Z,10.30
2019-04-25T20:45:24.515Z,10.30
2019-04-25T20:47:54.769Z,10.40
2019-04-25T20:50:25.764Z,10.40
2019-04-25T20:52:57.323Z,10.30
2019-04-25T20:55:27.248Z,10.40
2019-04-25T20:57:57.833Z,10.40
2019-04-25T21:00:44.075Z,10.40
2019-04-25T21:03:14.084Z,10.40
2019-04-25T21:05:45.034Z,10.30
2019-04-25T21:08:15.891Z,10.30
2019-04-25T21:10:45.756Z,10.30
2019-04-25T21:13:17.107Z,10.30
2019-04-25T21:15:58.283Z,10.30
2019-04-25T21:18:35.946Z,10.30
2019-04-25T21:21:05.823Z,10.40
2019-04-25T21:23:35.642Z,10.40
2019-04-25T21:26:05.536Z,10.40
2019-04-25T21:28:35.372Z,10.40
2019-04-25T21:31:05.152Z,10.40
2019-04-25T21:33:34.926Z,10.40
2019-04-25T21:36:05.369Z,10.40
2019-04-25T21:38:35.464Z,10.40
2019-04-25T21:41:23.917Z,10.40
2019-04-25T21:43:56.098Z,10.30
2019-04-25T21:46:26.146Z,10.30
2019-04-25T21:48:56.865Z,10.30
2019-04-25T21:51:32.678Z,10.30
2019-04-25T21:54:03.638Z,10.30
2019-04-25T21:56:33.882Z,10.20
2019-04-25T21:59:04.111Z,10.20
2019-04-25T22:01:38.683Z,10.20
2019-04-25T22:04:08.422Z,10.20
2019-04-25T22:06:38.613Z,10.10
2019-04-25T22:09:18.426Z,10.20
2019-04-25T22:11:48.582Z,10.20
2019-04-25T22:14:18.587Z,10.10
2019-04-25T22:16:48.668Z,10.10
2019-04-25T22:19:18.684Z,10.10
2019-04-25T22:21:48.837Z,10.10
2019-04-25T22:24:18.598Z,10.10
2019-04-25T22:26:50.326Z,10.10
2019-04-25T22:29:20.124Z,10.10
2019-04-25T22:31:55.730Z,10.10
2019-04-25T22:34:31.247Z,10.10
2019-04-25T22:37:02.026Z,10.10
2019-04-25T22:39:31.991Z,10.10
2019-04-25T22:42:02.095Z,10.10
2019-04-25T22:44:32.159Z,10.10
2019-04-25T22:47:02.382Z,10.10
2019-04-25T22:49:32.146Z,10.10
2019-04-25T22:52:03.098Z,10.10
2019-04-25T22:54:34.218Z,10.10
2019-04-25T22:57:04.272Z,10.10
2019-04-25T22:59:34.380Z,10.10
2019-04-25T23:02:05.691Z,10.10
2019-04-25T23:04:47.496Z,10.10
2019-04-25T23:07:18.133Z,10.10
2019-04-25T23:09:49.820Z,10.10
2019-04-25T23:12:19.760Z,10.10
2019-04-25T23:14:49.544Z,10.10
2019-04-25T23:17:19.314Z,10.20
2019-04-25T23:19:49.310Z,10.10
2019-04-25T23:22:19.077Z,10.20
2019-04-25T23:24:53.768Z,10.20
2019-04-25T23:27:31.013Z,10.20
2019-04-25T23:30:00.842Z,10.10
2019-04-25T23:32:31.186Z,10.20
2019-04-25T23:35:00.895Z,10.20
2019-04-25T23:37:30.650Z,10.20
2019-04-25T23:40:00.428Z,10.20
2019-04-25T23:42:30.140Z,10.20
2019-04-25T23:45:00.194Z,10.20
2019-04-25T23:47:29.918Z,10.20
2019-04-25T23:49:59.993Z,10.20
2019-04-25T23:52:29.756Z,10.20
2019-04-25T23:54:59.446Z,10.10
2019-04-25T23:57:29.248Z,10.10
2019-04-25T23:59:58.952Z,10.10
